sensor_id;sensor_type;location;lat;lon;timestamp;pressure;altitude;pressure_sealevel;temperature;humidity
21594;BME280;10959;51.328;7.322;2022-10-12T00:01:15;99657.78;;;9.18;67.27
21594;BME280;10959;51.328;7.322;2022-10-12T00:03:43;99659.72;;;9.12;67.57
21594;BME280;10959;51.328;7.322;2022-10-12T00:06:11;99661.50;;;9.13;67.78
21594;BME280;10959;51.328;7.322;2022-10-12T00:08:39;99661.59;;;9.10;67.73
21594;BME280;10959;51.328;7.322;2022-10-12T00:11:10;99661.75;;;9.04;67.32
21594;BME280;10959;51.328;7.322;2022-10-12T00:13:37;99658.16;;;9.05;67.41
21594;BME280;10959;51.328;7.322;2022-10-12T00:16:05;99650.09;;;9.05;67.70
21594;BME280;10959;51.328;7.322;2022-10-12T00:18:34;99651.00;;;9.04;68.04
21594;BME280;10959;51.328;7.322;2022-10-12T00:21:04;99643.13;;;8.98;67.49
21594;BME280;10959;51.328;7.322;2022-10-12T00:23:32;99651.19;;;8.98;68.34
21594;BME280;10959;51.328;7.322;2022-10-12T00:26:03;99649.72;;;8.88;67.63
21594;BME280;10959;51.328;7.322;2022-10-12T00:28:30;99647.03;;;8.88;68.46
21594;BME280;10959;51.328;7.322;2022-10-12T00:30:57;99647.84;;;8.90;67.59
21594;BME280;10959;51.328;7.322;2022-10-12T00:33:23;99656.81;;;8.89;68.32
21594;BME280;10959;51.328;7.322;2022-10-12T00:35:50;99644.25;;;8.91;68.20
21594;BME280;10959;51.328;7.322;2022-10-12T00:38:20;99646.06;;;8.90;68.57
21594;BME280;10959;51.328;7.322;2022-10-12T00:40:47;99653.22;;;8.90;68.39
21594;BME280;10959;51.328;7.322;2022-10-12T00:43:25;99642.97;;;8.73;68.24
21594;BME280;10959;51.328;7.322;2022-10-12T00:45:53;99651.53;;;8.86;68.32
21594;BME280;10959;51.328;7.322;2022-10-12T00:48:20;99646.16;;;8.86;67.92
21594;BME280;10959;51.328;7.322;2022-10-12T00:50:47;99642.75;;;8.80;68.30
21594;BME280;10959;51.328;7.322;2022-10-12T00:53:17;99651.91;;;8.73;67.97
21594;BME280;10959;51.328;7.322;2022-10-12T00:55:49;99646.66;;;8.69;67.95
21594;BME280;10959;51.328;7.322;2022-10-12T00:58:18;99652.16;;;8.64;67.69
21594;BME280;10959;51.328;7.322;2022-10-12T01:00:45;99650.38;;;8.63;68.33
21594;BME280;10959;51.328;7.322;2022-10-12T01:03:14;99653.25;;;8.57;67.96
21594;BME280;10959;51.328;7.322;2022-10-12T01:05:42;99649.75;;;8.55;68.27
21594;BME280;10959;51.328;7.322;2022-10-12T01:08:08;99644.38;;;8.55;68.70
21594;BME280;10959;51.328;7.322;2022-10-12T01:10:35;99642.63;;;8.54;68.84
21594;BME280;10959;51.328;7.322;2022-10-12T01:13:03;99647.94;;;8.55;68.53
21594;BME280;10959;51.328;7.322;2022-10-12T01:15:33;99648.81;;;8.56;68.50
21594;BME280;10959;51.328;7.322;2022-10-12T01:18:05;99647.06;;;8.55;68.16
21594;BME280;10959;51.328;7.322;2022-10-12T01:20:41;99641.84;;;8.48;68.50
21594;BME280;10959;51.328;7.322;2022-10-12T01:23:30;99647.50;;;8.38;68.85
21594;BME280;10959;51.328;7.322;2022-10-12T01:26:13;99642.09;;;8.39;68.49
21594;BME280;10959;51.328;7.322;2022-10-12T01:28:55;99636.72;;;8.39;68.63
21594;BME280;10959;51.328;7.322;2022-10-12T01:31:29;99638.34;;;8.46;68.51
21594;BME280;10959;51.328;7.322;2022-10-12T01:34:01;99638.25;;;8.50;68.82
21594;BME280;10959;51.328;7.322;2022-10-12T01:36:32;99630.97;;;8.55;68.63
21594;BME280;10959;51.328;7.322;2022-10-12T01:39:06;99632.97;;;8.46;68.65
21594;BME280;10959;51.328;7.322;2022-10-12T01:41:38;99634.69;;;8.49;68.31
21594;BME280;10959;51.328;7.322;2022-10-12T01:44:07;99628.50;;;8.45;68.41
21594;BME280;10959;51.328;7.322;2022-10-12T01:46:39;99631.34;;;8.39;68.11
21594;BME280;10959;51.328;7.322;2022-10-12T01:49:06;99632.09;;;8.46;68.43
21594;BME280;10959;51.328;7.322;2022-10-12T01:51:35;99627.75;;;8.40;68.12
21594;BME280;10959;51.328;7.322;2022-10-12T01:54:09;99624.28;;;8.35;68.49
21594;BME280;10959;51.328;7.322;2022-10-12T01:56:46;99613.66;;;8.32;68.12
21594;BME280;10959;51.328;7.322;2022-10-12T01:59:20;99615.47;;;8.30;68.59
21594;BME280;10959;51.328;7.322;2022-10-12T02:01:59;99619.19;;;8.26;68.60
21594;BME280;10959;51.328;7.322;2022-10-12T02:04:32;99619.25;;;8.23;68.78
21594;BME280;10959;51.328;7.322;2022-10-12T02:07:05;99612.19;;;8.20;68.87
21594;BME280;10959;51.328;7.322;2022-10-12T02:09:34;99607.47;;;8.28;68.45
21594;BME280;10959;51.328;7.322;2022-10-12T02:12:07;99605.88;;;8.21;68.84
21594;BME280;10959;51.328;7.322;2022-10-12T02:14:39;99599.66;;;8.21;68.58
21594;BME280;10959;51.328;7.322;2022-10-12T02:17:11;99600.66;;;8.17;68.94
21594;BME280;10959;51.328;7.322;2022-10-12T02:19:42;99603.41;;;8.13;69.01
21594;BME280;10959;51.328;7.322;2022-10-12T02:22:10;99601.56;;;8.16;69.15
21594;BME280;10959;51.328;7.322;2022-10-12T02:24:41;99599.75;;;8.18;69.12
21594;BME280;10959;51.328;7.322;2022-10-12T02:27:10;99601.53;;;8.17;69.08
21594;BME280;10959;51.328;7.322;2022-10-12T02:29:41;99596.28;;;8.12;68.97
21594;BME280;10959;51.328;7.322;2022-10-12T02:32:15;99591.09;;;8.06;68.79
21594;BME280;10959;51.328;7.322;2022-10-12T02:34:43;99592.59;;;8.17;69.03
21594;BME280;10959;51.328;7.322;2022-10-12T02:37:20;99592.00;;;8.05;68.56
21594;BME280;10959;51.328;7.322;2022-10-12T02:39:53;99591.00;;;8.09;68.61
21594;BME280;10959;51.328;7.322;2022-10-12T02:42:22;99588.28;;;8.11;68.80
21594;BME280;10959;51.328;7.322;2022-10-12T02:44:51;99591.00;;;8.09;68.81
21594;BME280;10959;51.328;7.322;2022-10-12T02:47:20;99596.47;;;8.06;68.62
21594;BME280;10959;51.328;7.322;2022-10-12T02:49:51;99587.50;;;8.07;68.82
21594;BME280;10959;51.328;7.322;2022-10-12T02:52:18;99590.13;;;8.09;68.75
21594;BME280;10959;51.328;7.322;2022-10-12T02:54:45;99579.47;;;8.07;69.05
21594;BME280;10959;51.328;7.322;2022-10-12T02:57:12;99576.88;;;8.03;69.36
21594;BME280;10959;51.328;7.322;2022-10-12T02:59:38;99568.13;;;7.96;69.09
21594;BME280;10959;51.328;7.322;2022-10-12T03:02:04;99569.78;;;8.00;69.41
21594;BME280;10959;51.328;7.322;2022-10-12T03:04:33;99568.13;;;7.96;69.21
21594;BME280;10959;51.328;7.322;2022-10-12T03:07:00;99554.03;;;7.88;69.88
21594;BME280;10959;51.328;7.322;2022-10-12T03:09:26;99556.72;;;7.88;69.93
21594;BME280;10959;51.328;7.322;2022-10-12T03:11:53;99549.53;;;7.88;69.66
21594;BME280;10959;51.328;7.322;2022-10-12T03:14:19;99550.50;;;7.86;69.58
21594;BME280;10959;51.328;7.322;2022-10-12T03:16:47;99554.13;;;7.85;69.43
21594;BME280;10959;51.328;7.322;2022-10-12T03:19:14;99549.69;;;7.84;69.72
21594;BME280;10959;51.328;7.322;2022-10-12T03:21:41;99555.03;;;7.84;69.66
21594;BME280;10959;51.328;7.322;2022-10-12T03:24:08;99550.50;;;7.86;69.78
21594;BME280;10959;51.328;7.322;2022-10-12T03:26:35;99554.13;;;7.85;69.59
21594;BME280;10959;51.328;7.322;2022-10-12T03:29:01;99555.81;;;7.89;69.80
21594;BME280;10959;51.328;7.322;2022-10-12T03:31:28;99560.28;;;7.88;69.47
21594;BME280;10959;51.328;7.322;2022-10-12T03:33:54;99559.50;;;7.85;69.92
21594;BME280;10959;51.328;7.322;2022-10-12T03:36:21;99552.34;;;7.84;69.77
21594;BME280;10959;51.328;7.322;2022-10-12T03:38:49;99553.28;;;7.83;69.55
21594;BME280;10959;51.328;7.322;2022-10-12T03:41:15;99551.50;;;7.83;69.29
21594;BME280;10959;51.328;7.322;2022-10-12T03:43:42;99550.59;;;7.83;69.18
21594;BME280;10959;51.328;7.322;2022-10-12T03:46:08;99550.69;;;7.79;69.46
21594;BME280;10959;51.328;7.322;2022-10-12T03:48:34;99555.13;;;7.81;69.53
21594;BME280;10959;51.328;7.322;2022-10-12T03:51:01;99549.88;;;7.76;69.55
21594;BME280;10959;51.328;7.322;2022-10-12T03:53:27;99548.03;;;7.78;70.01
21594;BME280;10959;51.328;7.322;2022-10-12T03:55:57;99542.03;;;7.68;69.53
21594;BME280;10959;51.328;7.322;2022-10-12T03:58:23;99542.19;;;7.62;70.02
21594;BME280;10959;51.328;7.322;2022-10-12T04:00:51;99540.44;;;7.61;70.00
21594;BME280;10959;51.328;7.322;2022-10-12T04:03:17;99538.75;;;7.57;70.30
21594;BME280;10959;51.328;7.322;2022-10-12T04:05:51;99530.25;;;7.39;70.23
21594;BME280;10959;51.328;7.322;2022-10-12T04:08:17;99534.41;;;7.51;70.30
21594;BME280;10959;51.328;7.322;2022-10-12T04:10:44;99539.88;;;7.48;70.42
21594;BME280;10959;51.328;7.322;2022-10-12T04:13:12;99539.91;;;7.47;70.42
21594;BME280;10959;51.328;7.322;2022-10-12T04:15:38;99535.31;;;7.52;70.28
21594;BME280;10959;51.328;7.322;2022-10-12T04:18:05;99530.75;;;7.55;70.37
21594;BME280;10959;51.328;7.322;2022-10-12T04:20:32;99532.50;;;7.56;69.73
21594;BME280;10959;51.328;7.322;2022-10-12T04:22:58;99531.63;;;7.56;69.93
21594;BME280;10959;51.328;7.322;2022-10-12T04:25:24;99535.28;;;7.53;69.82
21594;BME280;10959;51.328;7.322;2022-10-12T04:27:51;99527.19;;;7.55;69.68
21594;BME280;10959;51.328;7.322;2022-10-12T04:30:19;99526.34;;;7.53;69.92
21594;BME280;10959;51.328;7.322;2022-10-12T04:32:45;99519.16;;;7.55;69.41
21594;BME280;10959;51.328;7.322;2022-10-12T04:35:12;99533.56;;;7.51;69.75
21594;BME280;10959;51.328;7.322;2022-10-12T04:37:38;99528.34;;;7.44;69.86
21594;BME280;10959;51.328;7.322;2022-10-12T04:40:06;99528.41;;;7.41;69.90
21594;BME280;10959;51.328;7.322;2022-10-12T04:42:33;99527.56;;;7.39;69.83
21594;BME280;10959;51.328;7.322;2022-10-12T04:44:59;99527.47;;;7.44;70.05
21594;BME280;10959;51.328;7.322;2022-10-12T04:47:27;99523.91;;;7.43;69.79
21594;BME280;10959;51.328;7.322;2022-10-12T04:49:53;99523.88;;;7.45;69.92
21594;BME280;10959;51.328;7.322;2022-10-12T04:52:20;99525.69;;;7.44;69.87
21594;BME280;10959;51.328;7.322;2022-10-12T04:54:47;99524.81;;;7.42;69.73
21594;BME280;10959;51.328;7.322;2022-10-12T04:57:13;99523.00;;;7.44;70.32
21594;BME280;10959;51.328;7.322;2022-10-12T04:59:39;99517.69;;;7.41;70.26
21594;BME280;10959;51.328;7.322;2022-10-12T05:02:06;99517.63;;;7.44;70.69
21594;BME280;10959;51.328;7.322;2022-10-12T05:04:34;99508.66;;;7.46;70.41
21594;BME280;10959;51.328;7.322;2022-10-12T05:07:00;99522.84;;;7.51;70.57
21594;BME280;10959;51.328;7.322;2022-10-12T05:09:27;99527.25;;;7.53;71.04
21594;BME280;10959;51.328;7.322;2022-10-12T05:11:53;99514.53;;;7.60;71.00
21594;BME280;10959;51.328;7.322;2022-10-12T05:14:20;99516.25;;;7.63;71.10
21594;BME280;10959;51.328;7.322;2022-10-12T05:16:46;99513.44;;;7.67;71.08
21594;BME280;10959;51.328;7.322;2022-10-12T05:19:12;99511.53;;;7.72;71.31
21594;BME280;10959;51.328;7.322;2022-10-12T05:21:40;99511.47;;;7.75;71.19
21594;BME280;10959;51.328;7.322;2022-10-12T05:24:08;99503.31;;;7.78;71.22
21594;BME280;10959;51.328;7.322;2022-10-12T05:26:34;99510.47;;;7.79;70.90
21594;BME280;10959;51.328;7.322;2022-10-12T05:29:00;99510.41;;;7.81;70.71
21594;BME280;10959;51.328;7.322;2022-10-12T05:31:27;99514.00;;;7.80;70.97
21594;BME280;10959;51.328;7.322;2022-10-12T05:33:53;99505.94;;;7.82;70.71
21594;BME280;10959;51.328;7.322;2022-10-12T05:36:20;99507.94;;;7.73;70.55
21594;BME280;10959;51.328;7.322;2022-10-12T05:38:48;99508.03;;;7.70;70.97
21594;BME280;10959;51.328;7.322;2022-10-12T05:41:14;99508.03;;;7.70;70.80
21594;BME280;10959;51.328;7.322;2022-10-12T05:43:41;99510.72;;;7.70;71.17
21594;BME280;10959;51.328;7.322;2022-10-12T05:46:07;99511.63;;;7.69;70.68
21594;BME280;10959;51.328;7.322;2022-10-12T05:48:34;99509.00;;;7.68;70.66
21594;BME280;10959;51.328;7.322;2022-10-12T05:51:00;99514.44;;;7.65;70.54
21594;BME280;10959;51.328;7.322;2022-10-12T05:53:26;99512.75;;;7.60;70.93
21594;BME280;10959;51.328;7.322;2022-10-12T05:55:55;99522.66;;;7.57;70.94
21594;BME280;10959;51.328;7.322;2022-10-12T05:58:23;99515.47;;;7.59;71.07
21594;BME280;10959;51.328;7.322;2022-10-12T06:00:50;99515.41;;;7.62;71.01
21594;BME280;10959;51.328;7.322;2022-10-12T06:03:16;99515.47;;;7.59;71.30
21594;BME280;10959;51.328;7.322;2022-10-12T06:05:43;99527.88;;;7.63;71.26
21594;BME280;10959;51.328;7.322;2022-10-12T06:08:09;99529.63;;;7.64;71.17
21594;BME280;10959;51.328;7.322;2022-10-12T06:10:36;99526.03;;;7.65;71.42
21594;BME280;10959;51.328;7.322;2022-10-12T06:13:04;99526.84;;;7.69;71.36
21594;BME280;10959;51.328;7.322;2022-10-12T06:15:31;99531.13;;;7.74;71.28
21594;BME280;10959;51.328;7.322;2022-10-12T06:17:57;99528.44;;;7.76;71.44
21594;BME280;10959;51.328;7.322;2022-10-12T06:20:24;99532.00;;;7.76;71.05
21594;BME280;10959;51.328;7.322;2022-10-12T06:22:50;99526.63;;;7.76;71.00
21594;BME280;10959;51.328;7.322;2022-10-12T06:25:17;99536.44;;;7.77;71.14
21594;BME280;10959;51.328;7.322;2022-10-12T06:27:43;99536.44;;;7.77;71.42
21594;BME280;10959;51.328;7.322;2022-10-12T06:30:13;99532.91;;;7.75;71.15
21594;BME280;10959;51.328;7.322;2022-10-12T06:32:39;99530.22;;;7.75;71.20
21594;BME280;10959;51.328;7.322;2022-10-12T06:35:07;99526.59;;;7.78;70.93
21594;BME280;10959;51.328;7.322;2022-10-12T06:37:33;99533.81;;;7.76;71.02
21594;BME280;10959;51.328;7.322;2022-10-12T06:40:00;99533.81;;;7.76;70.91
21594;BME280;10959;51.328;7.322;2022-10-12T06:42:27;99539.03;;;7.81;70.97
21594;BME280;10959;51.328;7.322;2022-10-12T06:44:53;99533.53;;;7.85;70.97
21594;BME280;10959;51.328;7.322;2022-10-12T06:47:21;99539.38;;;8.01;71.00
21594;BME280;10959;51.328;7.322;2022-10-12T06:49:47;99531.81;;;8.16;71.18
21594;BME280;10959;51.328;7.322;2022-10-12T06:52:14;99538.72;;;8.26;70.90
21594;BME280;10959;51.328;7.322;2022-10-12T06:54:40;99536.50;;;8.40;71.04
21594;BME280;10959;51.328;7.322;2022-10-12T06:57:07;99539.59;;;8.58;71.41
21594;BME280;10959;51.328;7.322;2022-10-12T06:59:33;99529.28;;;8.74;70.98
21594;BME280;10959;51.328;7.322;2022-10-12T07:02:00;99529.72;;;8.88;70.76
21594;BME280;10959;51.328;7.322;2022-10-12T07:04:27;99536.34;;;9.06;71.10
21594;BME280;10959;51.328;7.322;2022-10-12T07:06:54;99528.59;;;9.24;71.29
21594;BME280;10959;51.328;7.322;2022-10-12T07:09:20;99526.22;;;9.41;71.53
21594;BME280;10959;51.328;7.322;2022-10-12T07:11:47;99536.25;;;9.63;71.98
21594;BME280;10959;51.328;7.322;2022-10-12T07:14:13;99524.88;;;9.81;71.63
21594;BME280;10959;51.328;7.322;2022-10-12T07:16:40;99526.09;;;9.98;71.93
21594;BME280;10959;51.328;7.322;2022-10-12T07:19:06;99526.25;;;10.18;71.61
21594;BME280;10959;51.328;7.322;2022-10-12T07:21:34;99522.97;;;10.35;70.84
21594;BME280;10959;51.328;7.322;2022-10-12T07:24:00;99518.84;;;10.50;70.59
21594;BME280;10959;51.328;7.322;2022-10-12T07:26:27;99523.63;;;10.66;70.55
21594;BME280;10959;51.328;7.322;2022-10-12T07:28:54;99522.91;;;10.84;70.18
21594;BME280;10959;51.328;7.322;2022-10-12T07:31:20;99525.94;;;10.99;69.65
21594;BME280;10959;51.328;7.322;2022-10-12T07:33:46;99523.31;;;11.19;69.76
21594;BME280;10959;51.328;7.322;2022-10-12T07:36:13;99522.56;;;11.38;68.88
21594;BME280;10959;51.328;7.322;2022-10-12T07:38:41;99518.28;;;11.54;68.18
21594;BME280;10959;51.328;7.322;2022-10-12T07:41:10;99516.75;;;11.69;67.77
21594;BME280;10959;51.328;7.322;2022-10-12T07:43:36;99520.59;;;11.84;67.66
21594;BME280;10959;51.328;7.322;2022-10-12T07:46:03;99522.59;;;12.01;66.95
21594;BME280;10959;51.328;7.322;2022-10-12T07:48:30;99522.94;;;12.14;67.05
21594;BME280;10959;51.328;7.322;2022-10-12T07:51:02;99525.38;;;12.20;66.40
21594;BME280;10959;51.328;7.322;2022-10-12T07:53:28;99521.56;;;12.45;66.02
21594;BME280;10959;51.328;7.322;2022-10-12T07:56:00;99523.03;;;12.52;64.17
21594;BME280;10959;51.328;7.322;2022-10-12T07:58:26;99522.97;;;12.73;64.39
21594;BME280;10959;51.328;7.322;2022-10-12T08:00:53;99526.72;;;12.89;64.14
21594;BME280;10959;51.328;7.322;2022-10-12T08:03:19;99533.00;;;13.09;64.26
21594;BME280;10959;51.328;7.322;2022-10-12T08:05:46;99523.91;;;13.29;63.89
21594;BME280;10959;51.328;7.322;2022-10-12T08:08:12;99520.09;;;13.52;64.00
21594;BME280;10959;51.328;7.322;2022-10-12T08:10:39;99526.09;;;13.76;63.52
21594;BME280;10959;51.328;7.322;2022-10-12T08:13:06;99525.06;;;13.96;62.86
21594;BME280;10959;51.328;7.322;2022-10-12T08:15:33;99527.06;;;14.10;62.13
21594;BME280;10959;51.328;7.322;2022-10-12T08:17:59;99525.19;;;14.28;61.23
21594;BME280;10959;51.328;7.322;2022-10-12T08:20:26;99525.75;;;14.35;60.93
21594;BME280;10959;51.328;7.322;2022-10-12T08:22:52;99529.78;;;14.44;61.30
21594;BME280;10959;51.328;7.322;2022-10-12T08:25:19;99523.84;;;14.53;61.18
21594;BME280;10959;51.328;7.322;2022-10-12T08:27:45;99531.00;;;14.72;61.70
21594;BME280;10959;51.328;7.322;2022-10-12T08:30:13;99522.66;;;14.92;61.03
21594;BME280;10959;51.328;7.322;2022-10-12T08:32:40;99527.38;;;15.04;60.65
21594;BME280;10959;51.328;7.322;2022-10-12T08:35:06;99520.81;;;15.09;60.61
21594;BME280;10959;51.328;7.322;2022-10-12T08:37:33;99533.25;;;15.13;60.13
21594;BME280;10959;51.328;7.322;2022-10-12T08:39:59;99529.66;;;15.28;59.62
21594;BME280;10959;51.328;7.322;2022-10-12T08:42:35;99527.81;;;15.45;59.64
21594;BME280;10959;51.328;7.322;2022-10-12T08:45:30;99531.31;;;15.47;59.09
21594;BME280;10959;51.328;7.322;2022-10-12T08:48:06;99523.13;;;15.79;59.72
21594;BME280;10959;51.328;7.322;2022-10-12T08:50:37;99524.41;;;16.18;59.08
21594;BME280;10959;51.328;7.322;2022-10-12T08:53:10;99525.59;;;16.42;58.20
21594;BME280;10959;51.328;7.322;2022-10-12T08:55:41;99525.63;;;16.71;57.39
21594;BME280;10959;51.328;7.322;2022-10-12T08:58:14;99519.97;;;16.74;56.87
21594;BME280;10959;51.328;7.322;2022-10-12T09:00:45;99521.00;;;16.88;56.40
21594;BME280;10959;51.328;7.322;2022-10-12T09:03:20;99523.69;;;17.02;55.92
21594;BME280;10959;51.328;7.322;2022-10-12T09:05:52;99519.00;;;17.04;55.89
21594;BME280;10959;51.328;7.322;2022-10-12T09:08:31;99516.50;;;17.01;56.35
21594;BME280;10959;51.328;7.322;2022-10-12T09:11:07;99523.97;;;17.12;56.42
21594;BME280;10959;51.328;7.322;2022-10-12T09:13:44;99527.25;;;17.17;56.55
21594;BME280;10959;51.328;7.322;2022-10-12T09:16:19;99522.09;;;17.13;56.88
21594;BME280;10959;51.328;7.322;2022-10-12T09:18:50;99521.22;;;17.26;55.57
21594;BME280;10959;51.328;7.322;2022-10-12T09:21:19;99520.16;;;17.29;55.29
21594;BME280;10959;51.328;7.322;2022-10-12T09:23:47;99514.69;;;17.29;54.75
21594;BME280;10959;51.328;7.322;2022-10-12T09:26:16;99512.75;;;17.31;55.10
21594;BME280;10959;51.328;7.322;2022-10-12T09:28:44;99514.06;;;17.38;54.70
21594;BME280;10959;51.328;7.322;2022-10-12T09:31:36;99520.94;;;17.17;55.25
21594;BME280;10959;51.328;7.322;2022-10-12T09:34:05;99511.72;;;17.47;54.84
21594;BME280;10959;51.328;7.322;2022-10-12T09:36:34;99505.00;;;17.52;54.25
21594;BME280;10959;51.328;7.322;2022-10-12T09:39:03;99513.75;;;17.70;54.21
21594;BME280;10959;51.328;7.322;2022-10-12T09:41:34;99512.91;;;17.83;52.97
21594;BME280;10959;51.328;7.322;2022-10-12T09:44:03;99513.66;;;17.99;53.26
21594;BME280;10959;51.328;7.322;2022-10-12T09:46:40;99513.22;;;18.05;52.94
21594;BME280;10959;51.328;7.322;2022-10-12T09:49:08;99507.91;;;18.42;52.48
21594;BME280;10959;51.328;7.322;2022-10-12T09:51:35;99515.53;;;18.63;51.59
21594;BME280;10959;51.328;7.322;2022-10-12T09:54:03;99521.00;;;18.63;50.95
21594;BME280;10959;51.328;7.322;2022-10-12T09:56:36;99512.41;;;18.30;50.89
21594;BME280;10959;51.328;7.322;2022-10-12T09:59:06;99516.31;;;18.13;51.42
21594;BME280;10959;51.328;7.322;2022-10-12T10:01:56;99509.22;;;17.84;51.38
21594;BME280;10959;51.328;7.322;2022-10-12T10:04:24;99520.22;;;18.09;51.87
21594;BME280;10959;51.328;7.322;2022-10-12T10:06:51;99515.19;;;18.29;51.11
21594;BME280;10959;51.328;7.322;2022-10-12T10:09:27;99515.66;;;18.48;50.88
21594;BME280;10959;51.328;7.322;2022-10-12T10:11:55;99511.63;;;18.67;49.49
21594;BME280;10959;51.328;7.322;2022-10-12T10:14:22;99510.63;;;18.94;49.91
21594;BME280;10959;51.328;7.322;2022-10-12T10:16:55;99512.13;;;19.11;49.64
21594;BME280;10959;51.328;7.322;2022-10-12T10:19:23;99507.88;;;19.44;48.86
21594;BME280;10959;51.328;7.322;2022-10-12T10:21:52;99511.53;;;19.56;48.88
21594;BME280;10959;51.328;7.322;2022-10-12T10:24:24;99510.78;;;19.54;48.88
21594;BME280;10959;51.328;7.322;2022-10-12T10:26:54;99512.09;;;19.24;48.19
21594;BME280;10959;51.328;7.322;2022-10-12T10:29:31;99523.06;;;18.85;47.85
21594;BME280;10959;51.328;7.322;2022-10-12T10:32:16;99522.41;;;18.56;48.15
21594;BME280;10959;51.328;7.322;2022-10-12T10:34:59;99507.13;;;18.66;48.60
21594;BME280;10959;51.328;7.322;2022-10-12T10:37:26;99519.34;;;18.99;47.94
21594;BME280;10959;51.328;7.322;2022-10-12T10:39:54;99515.19;;;19.06;47.73
21594;BME280;10959;51.328;7.322;2022-10-12T10:42:25;99515.56;;;19.26;48.80
21594;BME280;10959;51.328;7.322;2022-10-12T10:44:57;99511.63;;;19.54;49.27
21594;BME280;10959;51.328;7.322;2022-10-12T10:47:27;99518.69;;;19.94;48.60
21594;BME280;10959;51.328;7.322;2022-10-12T10:49:55;99513.25;;;20.05;47.30
21594;BME280;10959;51.328;7.322;2022-10-12T10:52:25;99512.28;;;20.17;47.97
21594;BME280;10959;51.328;7.322;2022-10-12T10:55:15;99513.03;;;20.08;48.94
21594;BME280;10959;51.328;7.322;2022-10-12T10:57:46;99512.88;;;20.57;47.63
21594;BME280;10959;51.328;7.322;2022-10-12T11:00:16;99507.19;;;20.71;48.42
21594;BME280;10959;51.328;7.322;2022-10-12T11:02:48;99506.03;;;20.62;45.85
21594;BME280;10959;51.328;7.322;2022-10-12T11:05:19;99495.72;;;20.66;45.97
21594;BME280;10959;51.328;7.322;2022-10-12T11:07:50;99505.25;;;20.49;45.53
21594;BME280;10959;51.328;7.322;2022-10-12T11:10:22;99498.41;;;20.43;45.41
21594;BME280;10959;51.328;7.322;2022-10-12T11:12:52;99499.44;;;20.42;45.90
21594;BME280;10959;51.328;7.322;2022-10-12T11:15:24;99498.66;;;20.40;45.98
21594;BME280;10959;51.328;7.322;2022-10-12T11:17:59;99504.25;;;20.38;45.88
21594;BME280;10959;51.328;7.322;2022-10-12T11:20:36;99495.16;;;20.27;44.29
21594;BME280;10959;51.328;7.322;2022-10-12T11:23:15;99489.00;;;20.00;45.69
21594;BME280;10959;51.328;7.322;2022-10-12T11:25:50;99482.09;;;20.19;46.25
21594;BME280;10959;51.328;7.322;2022-10-12T11:28:21;99488.97;;;20.47;46.73
21594;BME280;10959;51.328;7.322;2022-10-12T11:30:51;99472.94;;;20.65;46.84
21594;BME280;10959;51.328;7.322;2022-10-12T11:33:21;99484.03;;;20.64;46.26
21594;BME280;10959;51.328;7.322;2022-10-12T11:35:49;99483.28;;;20.84;47.28
21594;BME280;10959;51.328;7.322;2022-10-12T11:38:20;99476.81;;;20.97;47.86
21594;BME280;10959;51.328;7.322;2022-10-12T11:40:52;99478.19;;;21.02;47.01
21594;BME280;10959;51.328;7.322;2022-10-12T11:43:22;99468.59;;;21.08;47.15
21594;BME280;10959;51.328;7.322;2022-10-12T11:45:52;99465.88;;;20.97;47.14
21594;BME280;10959;51.328;7.322;2022-10-12T11:48:25;99464.41;;;20.81;47.52
21594;BME280;10959;51.328;7.322;2022-10-12T11:50:55;99459.91;;;20.92;48.02
21594;BME280;10959;51.328;7.322;2022-10-12T11:53:26;99458.91;;;20.93;48.15
21594;BME280;10959;51.328;7.322;2022-10-12T11:56:03;99460.91;;;20.91;47.50
21594;BME280;10959;51.328;7.322;2022-10-12T11:58:36;99456.19;;;20.81;48.17
21594;BME280;10959;51.328;7.322;2022-10-12T12:01:13;99455.69;;;20.65;47.72
21594;BME280;10959;51.328;7.322;2022-10-12T12:04:06;99451.16;;;20.30;49.07
21594;BME280;10959;51.328;7.322;2022-10-12T12:06:51;99454.38;;;20.12;48.80
21594;BME280;10959;51.328;7.322;2022-10-12T12:09:28;99454.03;;;20.28;48.78
21594;BME280;10959;51.328;7.322;2022-10-12T12:12:07;99447.16;;;20.11;49.69
21594;BME280;10959;51.328;7.322;2022-10-12T12:17:30;99437.97;;;20.12;48.94
21594;BME280;10959;51.328;7.322;2022-10-12T12:19:59;99444.28;;;20.13;49.60
21594;BME280;10959;51.328;7.322;2022-10-12T12:22:31;99443.19;;;20.15;50.01
21594;BME280;10959;51.328;7.322;2022-10-12T12:25:12;99438.47;;;20.29;50.19
21594;BME280;10959;51.328;7.322;2022-10-12T12:27:41;99434.00;;;20.39;49.88
21594;BME280;10959;51.328;7.322;2022-10-12T12:30:31;99437.22;;;20.22;50.08
21594;BME280;10959;51.328;7.322;2022-10-12T12:32:59;99435.00;;;20.27;49.30
21594;BME280;10959;51.328;7.322;2022-10-12T12:35:35;99433.34;;;20.13;49.67
21594;BME280;10959;51.328;7.322;2022-10-12T12:38:06;99432.25;;;20.15;50.31
21594;BME280;10959;51.328;7.322;2022-10-12T12:40:53;99431.19;;;19.82;50.16
21594;BME280;10959;51.328;7.322;2022-10-12T12:43:39;99428.88;;;19.65;50.14
21594;BME280;10959;51.328;7.322;2022-10-12T12:46:15;99432.09;;;19.70;50.71
21594;BME280;10959;51.328;7.322;2022-10-12T12:48:59;99424.41;;;19.40;51.48
21594;BME280;10959;51.328;7.322;2022-10-12T12:51:35;99423.75;;;19.36;51.53
21594;BME280;10959;51.328;7.322;2022-10-12T12:54:04;99421.91;;;19.61;51.69
21594;BME280;10959;51.328;7.322;2022-10-12T12:56:36;99426.53;;;19.47;51.61
21594;BME280;10959;51.328;7.322;2022-10-12T12:59:33;99423.88;;;19.10;52.03
21594;BME280;10959;51.328;7.322;2022-10-12T13:02:21;99424.34;;;19.04;51.92
21594;BME280;10959;51.328;7.322;2022-10-12T13:05:17;99421.53;;;18.93;52.03
21594;BME280;10959;51.328;7.322;2022-10-12T13:08:12;99418.72;;;18.81;52.60
21594;BME280;10959;51.328;7.322;2022-10-12T13:10:53;99416.31;;;18.90;52.51
21594;BME280;10959;51.328;7.322;2022-10-12T13:13:38;99419.78;;;18.92;52.58
21594;BME280;10959;51.328;7.322;2022-10-12T13:16:22;99416.31;;;18.90;52.72
21594;BME280;10959;51.328;7.322;2022-10-12T13:18:56;99412.44;;;19.05;51.68
21594;BME280;10959;51.328;7.322;2022-10-12T13:21:27;99414.88;;;18.97;51.96
21594;BME280;10959;51.328;7.322;2022-10-12T13:24:02;99402.34;;;18.81;52.62